Onweer radar Meer informatie blitzortung!


Regen radar Meer informatie rain snow radar



METAR rapporten vliegvelden

   
EHRD - Rotterdam
Gewijzigd: 17-04-2021 15:55
Helder  
Helder  
   Wind: NNW 12 km/h
Wind: NNW 12 km/h
Temperatuur: 11°C
Dauwpunt: 3°C
Vochtigheid: 58%
Barometer: 1026 hPa
Bewolking: Clear
Zicht: meer dan 10 km
Bewolking: Helder ft
EHRD 171355Z AUTO 34012KT 290V020 9999 NCD 11/03 Q1026 NOSIG
EBAW - Antwerpen
Gewijzigd: 17-04-2021 15:50
Helder  
Helder  
   Wind: Noorden 6 km/h
Wind: Noorden 6 km/h
Temperatuur: 12°C
Dauwpunt: 0°C
Vochtigheid: 44%
Barometer: 1025 hPa
Zicht: meer dan 10 km
Bewolking: Helder ft
EBAW 171350Z 36006KT 330V070 CAVOK 12/M00 Q1025 NOSIG
EHAM - Amsterdam
Gewijzigd: 17-04-2021 15:55
Licht bewolkt  
Licht bewolkt  
   Wind: Noorden 9 km/h
Wind: Noorden 9 km/h
Temperatuur: 10°C
Voelt als: 8°C
Dauwpunt: 1°C
Vochtigheid: 54%
Barometer: 1026 hPa
Bewolking: Few Clouds
Zicht: meer dan 10 km
Bewolking: Licht bewolkt 4400 ft
EHAM 171355Z 01009KT 340V050 9999 FEW044 10/01 Q1026 NOSIG
EHEH - Eindhoven
Gewijzigd: 17-04-2021 15:55
Helder  
Helder  
   Wind: Noorden 8 km/h
Wind: Noorden 8 km/h
Temperatuur: 13°C
Dauwpunt: 0°C
Vochtigheid: 41%
Barometer: 1024 hPa
Bewolking: Clear
Zicht: meer dan 10 km
Bewolking: Helder ft
EHEH 171355Z AUTO 35008KT 300V050 9999 NCD 13/00 Q1024 BLU NOSIG
  

Script ontwikkeld door  Saratoga-weather.org Aangepast voor de template door  Weerstation Leuven

U vindt ons ook hier:

Het Weer Aktueel

Apparatuur in gebruik:

Weerstation
Davis VP2

Weerprogramma
Cumulus

Weercomputer
Pipo X9 with Windows 10

Davis VP2

Cumulus

Pipo X9 with Windows 10